In Rescue
 
Open Full Screen Window  High Contrast Mode
Wind Gusting 17 knots
11
August 09, 2020 7:22 PM EDT
Weather Information
Wind Direction
  220 °
Wind Speed
  11 kt (13 mph)
Wind Gust
  17 kt (20 mph)
Altimeter
29.93 in
Visibility
10 SM
Temperature
25° C
77° F
Dewpoint
18° C
64° F
Humidity
65%
Sky Condition
Clear
VFR

METAR KSJX 092322Z AUTO 22011G17KT 10SM CLR 25/18 A2993 RMK AO2

FAA Disclaimer: The data displayed is for advisory purposes only and is not to be used for flight planning or operations.